Time;durP1;ratioP1;P1;durP2;ratioP2;P2;SDS_P1;SDS_P2;PMS_P1;PMS_P2;Temp;Humidity;BMP_temperature;BMP_pressure;BME280_temperature;BME280_humidity;BME280_pressure;Samples;Min_cycle;Max_cycle;Signal;HPM_P1;HPM_P2
2023/11/22 00:00:00;;;;;;;;;;;6.70;99.90;;;;;;5049804;28;19947;-91
2023/11/22 00:02:28;;;;;;;;;;;6.70;99.90;;;;;;5050032;28;19959;-92
2023/11/22 00:04:54;;;;;;;;;;;6.80;99.90;;;;;;5062806;28;19909;-88
2023/11/22 00:07:22;;;;;;;;;;;6.70;99.90;;;;;;5060218;28;19912;-91
2023/11/22 00:09:48;;;;;;;;;;;6.60;99.90;;;;;;5047519;28;20008;-91
2023/11/22 00:12:13;;;;;;;;;;;6.60;99.90;;;;;;5049139;28;20407;-91
2023/11/22 00:14:41;;;;;;;;;;;6.60;99.90;;;;;;5067127;28;20003;-90
2023/11/22 00:17:10;;;;;;;;;;;6.60;99.90;;;;;;5049890;28;19940;-91
2023/11/22 00:19:35;;;;;;;;;;;6.70;99.90;;;;;;5046101;28;19962;-91
2023/11/22 00:22:11;;;;;;;;;;;6.60;99.90;;;;;;5058262;28;19908;-91
2023/11/22 00:24:39;;;;;;;;;;;6.60;99.90;;;;;;5033714;28;19912;-91
2023/11/22 00:27:06;;;;;;;;;;;6.60;99.90;;;;;;5061259;28;20643;-91
2023/11/22 00:29:31;;;;;;;;;;;6.60;99.90;;;;;;5056753;28;19905;-92
2023/11/22 00:32:00;;;;;;;;;;;6.50;99.90;;;;;;5043328;28;19919;-91
2023/11/22 00:34:26;;;;;;;;;;;6.40;99.90;;;;;;5039072;28;19905;-90
2023/11/22 00:36:51;;;;;;;;;;;6.40;99.90;;;;;;5065466;28;19947;-91
2023/11/22 00:39:17;;;;;;;;;;;6.40;99.90;;;;;;5042642;28;19952;-92
2023/11/22 00:41:44;;;;;;;;;;;6.20;99.90;;;;;;5058936;28;19999;-91
2023/11/22 00:44:12;;;;;;;;;;;6.30;99.90;;;;;;5035149;28;20403;-92
2023/11/22 00:46:37;;;;;;;;;;;6.30;99.90;;;;;;5045999;28;19917;-92
2023/11/22 00:49:04;;;;;;;;;;;6.40;99.90;;;;;;5063812;28;20288;-91
2023/11/22 00:51:31;;;;;;;;;;;6.30;99.90;;;;;;5062266;28;19951;-91
2023/11/22 00:53:57;;;;;;;;;;;6.20;99.90;;;;;;5047574;28;20099;-90
2023/11/22 00:56:23;;;;;;;;;;;6.20;99.90;;;;;;5048548;28;19908;-91
2023/11/22 00:58:50;;;;;;;;;;;6.20;99.90;;;;;;5044649;28;19916;-92
2023/11/22 01:01:18;;;;;;;;;;;6.30;99.90;;;;;;5049889;28;20350;-91
2023/11/22 01:03:43;;;;;;;;;;;6.30;99.90;;;;;;5044416;28;19943;-91
2023/11/22 01:06:09;;;;;;;;;;;6.20;99.90;;;;;;5064230;28;19935;-91
2023/11/22 01:08:35;;;;;;;;;;;6.20;99.90;;;;;;5046155;28;20305;-91
2023/11/22 01:11:02;;;;;;;;;;;6.20;99.90;;;;;;5050856;28;19954;-91
2023/11/22 01:13:27;;;;;;;;;;;6.20;99.90;;;;;;5042885;28;19909;-91
2023/11/22 01:15:54;;;;;;;;;;;6.10;99.90;;;;;;5046202;28;19912;-91
2023/11/22 01:18:20;;;;;;;;;;;6.00;99.90;;;;;;5063771;28;19912;-91
2023/11/22 01:20:45;;;;;;;;;;;6.00;99.90;;;;;;5044393;28;19934;-91
2023/11/22 01:23:14;;;;;;;;;;;6.10;99.90;;;;;;5042259;28;20384;-92
2023/11/22 01:25:39;;;;;;;;;;;6.10;99.90;;;;;;5064001;28;20342;-92
2023/11/22 01:28:06;;;;;;;;;;;6.10;99.90;;;;;;5047870;28;19912;-92
2023/11/22 01:30:32;;;;;;;;;;;6.10;99.90;;;;;;5052967;28;20438;-91
2023/11/22 01:33:00;;;;;;;;;;;6.00;99.90;;;;;;5050153;28;19915;-92
2023/11/22 01:35:26;;;;;;;;;;;6.00;99.90;;;;;;5071474;28;19908;-91
2023/11/22 01:37:56;;;;;;;;;;;6.00;99.90;;;;;;5033531;28;20039;-91
2023/11/22 01:40:22;;;;;;;;;;;6.20;99.90;;;;;;5067074;28;19959;-92
2023/11/22 01:42:47;;;;;;;;;;;6.00;99.90;;;;;;5054397;28;19916;-92
2023/11/22 01:45:13;;;;;;;;;;;5.80;99.90;;;;;;5051437;28;19912;-92
2023/11/22 01:47:41;;;;;;;;;;;5.70;99.90;;;;;;5069447;28;19948;-92
2023/11/22 01:50:08;;;;;;;;;;;5.80;99.90;;;;;;5049470;28;19963;-92
2023/11/22 01:52:34;;;;;;;;;;;5.70;99.90;;;;;;5054077;28;19928;-91
2023/11/22 01:55:00;;;;;;;;;;;5.90;99.90;;;;;;5067598;28;19931;-91
2023/11/22 01:57:28;;;;;;;;;;;6.00;99.90;;;;;;5052189;28;19916;-91
2023/11/22 01:59:53;;;;;;;;;;;5.90;99.90;;;;;;5048360;28;19912;-91
2023/11/22 02:02:19;;;;;;;;;;;5.90;99.90;;;;;;5063592;28;19909;-93
2023/11/22 02:04:45;;;;;;;;;;;5.80;99.90;;;;;;5066804;28;19935;-92
2023/11/22 02:07:10;;;;;;;;;;;5.90;99.90;;;;;;5045596;28;20147;-92
2023/11/22 02:09:38;;;;;;;;;;;5.80;99.90;;;;;;5049813;28;19908;-91
2023/11/22 02:12:06;;;;;;;;;;;5.80;99.90;;;;;;5067149;28;19991;-91
2023/11/22 02:14:34;;;;;;;;;;;5.90;99.90;;;;;;5047470;28;19913;-92
2023/11/22 02:17:00;;;;;;;;;;;5.90;99.90;;;;;;5053680;28;20405;-91
2023/11/22 02:19:25;;;;;;;;;;;5.90;99.90;;;;;;5051697;28;19909;-91
2023/11/22 02:21:52;;;;;;;;;;;5.80;99.90;;;;;;5053235;28;19909;-92
2023/11/22 02:24:17;;;;;;;;;;;5.90;99.90;;;;;;5063865;28;21468;-92
2023/11/22 02:26:43;;;;;;;;;;;5.70;99.90;;;;;;5041886;28;19960;-92
2023/11/22 02:29:09;;;;;;;;;;;5.70;99.90;;;;;;5052684;28;19916;-92
2023/11/22 02:31:35;;;;;;;;;;;5.70;99.90;;;;;;5045542;28;19913;-92
2023/11/22 02:34:00;;;;;;;;;;;5.70;99.90;;;;;;5064769;28;19916;-92
2023/11/22 02:36:28;;;;;;;;;;;5.80;99.90;;;;;;5048423;28;19971;-91
2023/11/22 02:38:54;;;;;;;;;;;5.60;99.90;;;;;;5061782;28;19928;-92
2023/11/22 02:41:22;;;;;;;;;;;5.60;99.90;;;;;;5054056;28;19917;-91
2023/11/22 02:43:47;;;;;;;;;;;5.60;99.90;;;;;;5049576;28;20394;-92
2023/11/22 02:46:13;;;;;;;;;;;5.50;99.90;;;;;;5064892;28;19912;-92
2023/11/22 02:48:39;;;;;;;;;;;5.50;99.90;;;;;;5051115;28;20315;-91
2023/11/22 02:51:07;;;;;;;;;;;5.50;99.90;;;;;;5046694;28;19942;-91
2023/11/22 02:53:33;;;;;;;;;;;5.50;99.90;;;;;;5057720;28;19916;-92
2023/11/22 02:56:00;;;;;;;;;;;5.50;99.90;;;;;;5045149;28;19908;-90
2023/11/22 02:58:26;;;;;;;;;;;5.40;99.90;;;;;;5054136;28;19966;-92
2023/11/22 03:00:54;;;;;;;;;;;5.40;99.90;;;;;;5047607;28;19956;-92
2023/11/22 03:03:20;;;;;;;;;;;5.40;99.90;;;;;;5064579;28;19913;-92
2023/11/22 03:05:48;;;;;;;;;;;5.50;99.90;;;;;;5051173;28;20367;-91
2023/11/22 03:08:15;;;;;;;;;;;5.40;99.90;;;;;;5049777;28;19923;-92
2023/11/22 03:10:41;;;;;;;;;;;5.40;99.90;;;;;;5059506;28;19955;-92
2023/11/22 03:13:08;;;;;;;;;;;5.40;99.90;;;;;;5045527;28;20422;-92
2023/11/22 03:15:37;;;;;;;;;;;5.40;99.90;;;;;;5050454;28;19991;-91
2023/11/22 03:18:04;;;;;;;;;;;5.50;99.90;;;;;;5066986;28;19960;-92
2023/11/22 03:20:32;;;;;;;;;;;5.60;99.90;;;;;;5048013;28;19916;-92
2023/11/22 03:22:58;;;;;;;;;;;5.60;99.90;;;;;;5043385;28;19939;-91
2023/11/22 03:25:23;;;;;;;;;;;5.50;99.90;;;;;;5049327;28;19912;-91
2023/11/22 03:27:51;;;;;;;;;;;5.50;99.90;;;;;;5060565;28;19951;-91
2023/11/22 03:30:20;;;;;;;;;;;5.50;99.90;;;;;;5048166;28;20499;-92
2023/11/22 03:32:49;;;;;;;;;;;5.50;99.90;;;;;;5064570;28;19913;-91
2023/11/22 03:35:15;;;;;;;;;;;5.50;99.90;;;;;;5067542;28;19920;-91
2023/11/22 03:37:44;;;;;;;;;;;5.50;99.90;;;;;;5060317;28;19997;-91
2023/11/22 03:40:10;;;;;;;;;;;5.60;99.90;;;;;;5052563;28;19919;-92
2023/11/22 03:42:37;;;;;;;;;;;5.60;99.90;;;;;;5066192;28;19908;-91
2023/11/22 03:45:03;;;;;;;;;;;5.50;99.90;;;;;;5051051;28;19912;-92
2023/11/22 03:47:28;;;;;;;;;;;5.40;99.90;;;;;;5062645;28;19912;-92
2023/11/22 03:49:54;;;;;;;;;;;5.30;99.90;;;;;;5050974;28;19931;-92
2023/11/22 03:52:19;;;;;;;;;;;5.30;99.90;;;;;;5064556;28;19921;-91
2023/11/22 03:54:47;;;;;;;;;;;5.50;99.90;;;;;;5052007;28;20370;-92
2023/11/22 03:57:13;;;;;;;;;;;5.50;99.90;;;;;;5058367;28;19913;-93
2023/11/22 03:59:40;;;;;;;;;;;5.50;99.90;;;;;;5051152;28;19909;-92
2023/11/22 04:02:08;;;;;;;;;;;5.30;99.90;;;;;;5048637;28;19916;-91
2023/11/22 04:04:33;;;;;;;;;;;5.30;99.90;;;;;;5049220;28;19944;-92
2023/11/22 04:07:00;;;;;;;;;;;5.40;99.90;;;;;;5046616;28;20402;-92
2023/11/22 04:09:25;;;;;;;;;;;5.30;99.90;;;;;;5045968;28;19999;-92
2023/11/22 04:11:51;;;;;;;;;;;5.40;99.90;;;;;;5048594;28;19917;-92
2023/11/22 04:14:20;;;;;;;;;;;5.50;99.90;;;;;;5050235;28;19915;-92
2023/11/22 04:16:45;;;;;;;;;;;5.50;99.90;;;;;;5047254;28;20293;-92
2023/11/22 04:19:11;;;;;;;;;;;5.50;99.90;;;;;;5047295;28;19908;-92
2023/11/22 04:21:39;;;;;;;;;;;5.50;99.90;;;;;;5049449;28;20340;-92
2023/11/22 04:24:04;;;;;;;;;;;5.40;99.90;;;;;;5043976;28;19994;-92
2023/11/22 04:26:30;;;;;;;;;;;5.40;99.90;;;;;;5063767;28;19956;-92
2023/11/22 04:28:59;;;;;;;;;;;5.50;99.90;;;;;;5063995;28;19913;-92
2023/11/22 04:31:24;;;;;;;;;;;5.60;99.90;;;;;;5047173;28;20395;-92
2023/11/22 04:33:50;;;;;;;;;;;5.50;99.90;;;;;;5035357;28;19916;-92
2023/11/22 04:36:16;;;;;;;;;;;5.60;99.90;;;;;;5050019;28;19977;-92
2023/11/22 04:38:42;;;;;;;;;;;5.60;99.90;;;;;;5048546;28;19909;-92
2023/11/22 04:41:10;;;;;;;;;;;5.50;99.90;;;;;;5051465;28;19919;-92
2023/11/22 04:43:36;;;;;;;;;;;5.50;99.90;;;;;;5050287;28;19991;-92
2023/11/22 04:46:04;;;;;;;;;;;5.40;99.90;;;;;;5042613;28;19913;-92
2023/11/22 04:48:29;;;;;;;;;;;5.40;99.90;;;;;;5060882;28;19916;-92
2023/11/22 04:50:55;;;;;;;;;;;5.40;99.90;;;;;;5047890;28;19921;-91
2023/11/22 04:53:20;;;;;;;;;;;5.40;99.90;;;;;;5049884;28;20441;-92
2023/11/22 04:55:49;;;;;;;;;;;5.40;99.90;;;;;;5066174;28;20446;-91
2023/11/22 04:58:17;;;;;;;;;;;5.40;99.90;;;;;;5070039;28;19916;-91
2023/11/22 05:00:42;;;;;;;;;;;5.30;99.90;;;;;;5064373;28;20447;-92
2023/11/22 05:03:10;;;;;;;;;;;5.30;99.90;;;;;;5048589;28;20020;-90
2023/11/22 05:05:40;;;;;;;;;;;5.30;99.90;;;;;;5061152;28;19913;-92
2023/11/22 05:08:06;;;;;;;;;;;5.20;99.90;;;;;;5070533;28;19916;-91
2023/11/22 05:10:31;;;;;;;;;;;5.30;99.90;;;;;;5047444;28;19905;-92
2023/11/22 05:12:59;;;;;;;;;;;5.40;99.90;;;;;;5058061;28;20436;-91
2023/11/22 05:15:29;;;;;;;;;;;5.40;99.90;;;;;;5052743;28;20576;-90
2023/11/22 05:17:58;;;;;;;;;;;5.30;99.90;;;;;;5064407;28;20430;-91
2023/11/22 05:20:23;;;;;;;;;;;5.20;99.90;;;;;;5057638;28;19909;-92
2023/11/22 05:22:48;;;;;;;;;;;5.30;99.90;;;;;;5052489;28;20288;-92
2023/11/22 05:25:14;;;;;;;;;;;5.30;99.90;;;;;;5054655;28;20231;-92
2023/11/22 05:27:42;;;;;;;;;;;5.30;99.90;;;;;;5044520;28;20406;-92
2023/11/22 05:30:09;;;;;;;;;;;5.20;99.90;;;;;;5050035;28;19916;-91
2023/11/22 05:32:34;;;;;;;;;;;5.20;99.90;;;;;;5055721;28;20027;-92
2023/11/22 05:35:03;;;;;;;;;;;5.20;99.90;;;;;;5051395;28;20364;-92
2023/11/22 05:37:28;;;;;;;;;;;5.20;99.90;;;;;;5067616;28;20015;-91
2023/11/22 05:39:55;;;;;;;;;;;5.00;99.90;;;;;;5050997;28;19923;-91
2023/11/22 05:42:20;;;;;;;;;;;4.90;99.90;;;;;;5049945;28;19922;-90
2023/11/22 05:44:49;;;;;;;;;;;4.90;99.90;;;;;;5065803;28;19908;-92
2023/11/22 05:47:18;;;;;;;;;;;4.90;99.90;;;;;;5049915;28;19917;-92
2023/11/22 05:49:43;;;;;;;;;;;4.90;99.90;;;;;;5063238;28;19917;-90
2023/11/22 05:52:11;;;;;;;;;;;5.00;99.90;;;;;;5051947;28;19913;-92
2023/11/22 05:54:37;;;;;;;;;;;5.00;99.90;;;;;;5051246;28;19972;-91
2023/11/22 05:57:02;;;;;;;;;;;4.90;99.90;;;;;;5065271;28;19944;-92
2023/11/22 05:59:37;;;;;;;;;;;5.00;99.90;;;;;;5056915;28;19912;-91
2023/11/22 06:02:02;;;;;;;;;;;5.10;99.90;;;;;;5066945;28;19959;-91
2023/11/22 06:04:28;;;;;;;;;;;5.00;99.90;;;;;;5050779;28;20367;-92
2023/11/22 06:06:53;;;;;;;;;;;5.00;99.90;;;;;;5070935;28;19913;-92
2023/11/22 06:09:19;;;;;;;;;;;4.90;99.90;;;;;;5053434;28;20087;-92
2023/11/22 06:11:47;;;;;;;;;;;4.90;99.90;;;;;;5052650;28;19923;-91
2023/11/22 06:14:12;;;;;;;;;;;5.00;99.90;;;;;;5062649;28;19915;-91
2023/11/22 06:16:38;;;;;;;;;;;5.00;99.90;;;;;;5064218;28;19999;-92
2023/11/22 06:19:03;;;;;;;;;;;5.00;99.90;;;;;;5066075;28;19932;-91
2023/11/22 06:21:29;;;;;;;;;;;5.00;99.90;;;;;;5051352;28;21282;-90
2023/11/22 06:23:58;;;;;;;;;;;5.00;99.90;;;;;;5052008;28;19913;-91
2023/11/22 06:26:24;;;;;;;;;;;5.00;99.90;;;;;;5047145;28;19909;-92
2023/11/22 06:28:49;;;;;;;;;;;4.90;99.90;;;;;;5049210;28;19915;-91
2023/11/22 06:31:17;;;;;;;;;;;5.00;99.90;;;;;;5063933;28;19913;-91
2023/11/22 06:33:46;;;;;;;;;;;5.00;99.90;;;;;;5051975;28;19966;-92
2023/11/22 06:36:14;;;;;;;;;;;5.00;99.90;;;;;;5049003;28;20338;-91
2023/11/22 06:38:39;;;;;;;;;;;4.90;99.90;;;;;;5048108;28;19915;-91
2023/11/22 06:41:07;;;;;;;;;;;4.80;99.90;;;;;;5065746;28;19916;-92
2023/11/22 06:43:35;;;;;;;;;;;4.90;99.90;;;;;;5046942;28;19909;-92
2023/11/22 06:46:02;;;;;;;;;;;4.80;99.90;;;;;;5068806;28;19939;-92
2023/11/22 06:48:27;;;;;;;;;;;4.80;99.90;;;;;;5046600;28;19913;-91
2023/11/22 06:50:53;;;;;;;;;;;4.80;99.90;;;;;;5059901;28;20070;-91
2023/11/22 06:53:19;;;;;;;;;;;4.90;99.90;;;;;;5050942;28;20360;-91
2023/11/22 06:55:45;;;;;;;;;;;4.90;99.90;;;;;;5063142;28;20342;-91
2023/11/22 06:58:13;;;;;;;;;;;5.00;99.90;;;;;;5065028;28;19932;-90
2023/11/22 07:00:40;;;;;;;;;;;5.00;99.90;;;;;;5045489;28;20330;-90
2023/11/22 07:03:05;;;;;;;;;;;5.00;99.90;;;;;;5050978;28;19916;-92
2023/11/22 07:05:34;;;;;;;;;;;5.00;99.90;;;;;;5063774;28;20059;-91
2023/11/22 07:07:59;;;;;;;;;;;4.90;99.90;;;;;;5064514;28;19913;-91
2023/11/22 07:10:26;;;;;;;;;;;4.90;99.90;;;;;;5063233;28;20346;-92
2023/11/22 07:12:52;;;;;;;;;;;5.10;99.90;;;;;;5052028;28;19908;-90
2023/11/22 07:15:17;;;;;;;;;;;5.00;99.90;;;;;;5067887;28;19908;-91
2023/11/22 07:17:57;;;;;;;;;;;5.00;99.90;;;;;;5056211;28;20004;-95
2023/11/22 07:20:27;;;;;;;;;;;5.00;99.90;;;;;;5069271;28;19915;-95
2023/11/22 07:22:57;;;;;;;;;;;4.90;99.90;;;;;;5057051;28;19959;-94
2023/11/22 07:25:24;;;;;;;;;;;5.00;99.90;;;;;;5053397;28;19916;-94
2023/11/22 07:28:00;;;;;;;;;;;5.00;99.90;;;;;;5041538;28;19930;-94
2023/11/22 07:36:25;;;;;;;;;;;5.10;99.90;;;;;;5056622;28;20427;-94
2023/11/22 07:38:53;;;;;;;;;;;5.10;99.90;;;;;;5069325;28;19936;-95
2023/11/22 07:41:18;;;;;;;;;;;5.20;99.90;;;;;;5069708;28;19920;-95
2023/11/22 07:43:47;;;;;;;;;;;5.20;99.90;;;;;;5069300;28;20352;-96
2023/11/22 07:46:13;;;;;;;;;;;5.20;99.90;;;;;;5043014;28;19921;-94
2023/11/22 07:48:50;;;;;;;;;;;5.20;99.90;;;;;;5060114;28;20367;-94
2023/11/22 07:51:29;;;;;;;;;;;5.30;99.90;;;;;;5030934;28;20334;-94
2023/11/22 07:53:55;;;;;;;;;;;5.20;99.90;;;;;;5051913;28;19947;-94
2023/11/22 07:56:21;;;;;;;;;;;5.40;99.90;;;;;;5050582;28;19987;-94
2023/11/22 07:58:46;;;;;;;;;;;5.20;99.90;;;;;;5063403;28;19978;-94
2023/11/22 08:01:13;;;;;;;;;;;5.00;99.90;;;;;;5053220;28;19912;-93
2023/11/22 08:03:45;;;;;;;;;;;5.10;99.90;;;;;;5053476;28;19909;-94
2023/11/22 08:06:13;;;;;;;;;;;5.10;99.90;;;;;;5053195;28;19970;-94
2023/11/22 08:08:41;;;;;;;;;;;5.40;99.90;;;;;;5052691;28;19912;-95
2023/11/22 08:11:38;;;;;;;;;;;5.20;99.90;;;;;;5052680;28;19909;-93
2023/11/22 08:17:00;;;;;;;;;;;5.40;99.90;;;;;;5024699;28;19921;-69
2023/11/22 08:19:27;;;;;;;;;;;5.20;99.90;;;;;;5025618;28;20017;-69
2023/11/22 08:21:54;;;;;;;;;;;5.10;99.90;;;;;;5025886;28;19920;-69
2023/11/22 08:24:19;;;;;;;;;;;5.20;99.90;;;;;;5006230;28;19919;-70
2023/11/22 08:26:45;;;;;;;;;;;5.30;99.90;;;;;;5027239;28;19913;-69
2023/11/22 08:29:14;;;;;;;;;;;5.30;99.90;;;;;;5026247;28;19917;-70
2023/11/22 08:31:40;;;;;;;;;;;5.40;99.90;;;;;;5023716;28;20004;-69
2023/11/22 08:34:08;;;;;;;;;;;5.30;99.90;;;;;;5025469;28;20000;-70
2023/11/22 08:36:34;;;;;;;;;;;5.30;99.90;;;;;;5026001;28;19913;-70
2023/11/22 08:39:03;;;;;;;;;;;5.40;99.90;;;;;;5027184;28;19909;-69
2023/11/22 08:41:30;;;;;;;;;;;5.30;99.90;;;;;;5026608;28;19928;-69
2023/11/22 08:43:58;;;;;;;;;;;5.40;99.90;;;;;;5025687;28;20371;-70
2023/11/22 08:46:24;;;;;;;;;;;5.30;99.90;;;;;;5024209;28;19913;-69
2023/11/22 08:48:50;;;;;;;;;;;5.30;99.90;;;;;;5026128;28;20120;-70
2023/11/22 08:51:16;;;;;;;;;;;5.50;99.90;;;;;;5022390;28;20629;-69
2023/11/22 08:53:44;;;;;;;;;;;5.50;99.90;;;;;;5022917;28;19909;-70
2023/11/22 08:56:11;;;;;;;;;;;5.50;99.90;;;;;;5020722;28;19920;-69
2023/11/22 08:58:39;;;;;;;;;;;5.60;99.90;;;;;;5024046;28;19913;-69
2023/11/22 09:01:05;;;;;;;;;;;5.70;99.90;;;;;;5023231;28;19919;-69
2023/11/22 09:03:33;;;;;;;;;;;5.70;99.90;;;;;;5024612;28;19909;-70
2023/11/22 09:06:00;;;;;;;;;;;5.70;99.90;;;;;;5023482;28;19913;-69
2023/11/22 09:08:25;;;;;;;;;;;5.70;99.90;;;;;;5022400;28;20394;-70
2023/11/22 09:10:51;;;;;;;;;;;5.70;99.90;;;;;;5021736;28;19922;-71
2023/11/22 09:13:16;;;;;;;;;;;5.70;99.90;;;;;;5022711;28;19952;-71
2023/11/22 09:15:44;;;;;;;;;;;5.70;99.90;;;;;;5024182;28;20002;-71
2023/11/22 09:18:12;;;;;;;;;;;5.60;99.90;;;;;;5019826;28;19980;-71
2023/11/22 09:20:44;;;;;;;;;;;5.50;99.90;;;;;;5022993;28;19913;-71
2023/11/22 09:23:09;;;;;;;;;;;5.50;99.90;;;;;;5020212;28;19913;-71
2023/11/22 09:25:36;;;;;;;;;;;5.50;99.90;;;;;;5023846;28;20394;-71
2023/11/22 09:28:01;;;;;;;;;;;5.50;99.90;;;;;;5019171;28;20359;-71
2023/11/22 09:30:42;;;;;;;;;;;5.50;99.90;;;;;;5025010;28;19909;-71
2023/11/22 09:33:14;;;;;;;;;;;5.50;99.90;;;;;;5025845;28;19921;-71
2023/11/22 09:35:40;;;;;;;;;;;5.50;99.90;;;;;;5001123;28;19921;-71
2023/11/22 09:38:12;;;;;;;;;;;5.50;99.90;;;;;;5022315;28;19935;-71
2023/11/22 09:40:43;;;;;;;;;;;5.60;99.90;;;;;;5025034;28;19913;-71
2023/11/22 09:43:11;;;;;;;;;;;5.60;99.90;;;;;;5027389;28;19952;-71
2023/11/22 09:45:39;;;;;;;;;;;5.70;99.90;;;;;;5028530;28;19909;-71
2023/11/22 09:48:14;;;;;;;;;;;5.70;99.90;;;;;;5029393;28;19909;-71
2023/11/22 09:50:59;;;;;;;;;;;5.60;99.90;;;;;;5029423;28;20419;-72
2023/11/22 09:53:30;;;;;;;;;;;5.60;99.90;;;;;;5026759;28;19917;-71
2023/11/22 09:55:58;;;;;;;;;;;5.60;99.90;;;;;;5028866;28;19913;-71
2023/11/22 09:58:29;;;;;;;;;;;5.60;99.90;;;;;;5028086;28;19913;-71
2023/11/22 10:00:56;;;;;;;;;;;5.60;99.90;;;;;;5027074;28;19948;-71
2023/11/22 10:03:23;;;;;;;;;;;5.60;99.90;;;;;;5024502;28;20000;-72
2023/11/22 10:05:49;;;;;;;;;;;5.50;99.90;;;;;;5027235;28;20017;-71
2023/11/22 10:08:17;;;;;;;;;;;5.40;99.90;;;;;;5026183;28;20343;-71
2023/11/22 10:10:45;;;;;;;;;;;5.50;99.90;;;;;;5026585;28;19999;-71
2023/11/22 10:13:12;;;;;;;;;;;5.50;99.90;;;;;;5024719;28;19963;-71
2023/11/22 10:15:38;;;;;;;;;;;5.60;99.90;;;;;;5024405;28;19924;-71
2023/11/22 10:18:03;;;;;;;;;;;5.70;99.90;;;;;;5026832;28;19913;-71
2023/11/22 10:20:40;;;;;;;;;;;5.50;99.90;;;;;;5024835;28;19917;-71
2023/11/22 10:23:09;;;;;;;;;;;5.60;99.90;;;;;;5024117;28;19917;-71
2023/11/22 10:25:49;;;;;;;;;;;5.70;99.90;;;;;;5022350;28;19913;-71
2023/11/22 10:28:18;;;;;;;;;;;5.80;99.90;;;;;;5029630;28;19909;-71
2023/11/22 10:30:45;;;;;;;;;;;5.60;99.90;;;;;;5029149;28;19913;-71
2023/11/22 10:33:13;;;;;;;;;;;5.80;99.90;;;;;;5025779;28;19971;-72
2023/11/22 10:35:45;;;;;;;;;;;5.70;99.90;;;;;;5026744;28;20492;-71
2023/11/22 10:38:13;;;;;;;;;;;5.70;99.90;;;;;;5021985;28;19915;-71
2023/11/22 10:40:41;;;;;;;;;;;5.90;99.90;;;;;;5029423;28;20438;-71
2023/11/22 10:43:08;;;;;;;;;;;5.80;99.90;;;;;;5028623;28;19956;-71
2023/11/22 10:45:34;;;;;;;;;;;5.70;99.90;;;;;;5026291;28;20379;-71
2023/11/22 10:48:03;;;;;;;;;;;5.90;99.90;;;;;;5024928;28;19917;-71
2023/11/22 10:50:32;;;;;;;;;;;6.00;99.90;;;;;;5030469;28;20027;-71
2023/11/22 10:53:00;;;;;;;;;;;6.10;99.90;;;;;;5026828;28;19909;-71
2023/11/22 10:55:31;;;;;;;;;;;6.20;99.90;;;;;;5022783;28;19917;-71
2023/11/22 10:58:01;;;;;;;;;;;6.30;99.70;;;;;;5026809;28;19909;-71
2023/11/22 11:00:27;;;;;;;;;;;6.10;99.70;;;;;;5024079;28;20007;-71
2023/11/22 11:02:59;;;;;;;;;;;6.00;99.80;;;;;;5028712;28;20279;-71
2023/11/22 11:05:28;;;;;;;;;;;6.20;99.50;;;;;;5028996;28;19913;-72
2023/11/22 11:08:01;;;;;;;;;;;6.20;98.90;;;;;;5028847;28;20020;-71
2023/11/22 11:10:27;;;;;;;;;;;6.20;99.00;;;;;;5024704;28;19909;-71
2023/11/22 11:12:53;;;;;;;;;;;6.10;98.70;;;;;;5023775;28;19916;-72
2023/11/22 11:15:21;;;;;;;;;;;6.20;98.60;;;;;;5024732;28;19917;-71
2023/11/22 11:17:47;;;;;;;;;;;6.20;98.30;;;;;;5032526;28;19908;-71
2023/11/22 11:20:15;;;;;;;;;;;6.20;99.00;;;;;;5020828;28;19920;-71
2023/11/22 11:22:41;;;;;;;;;;;6.10;98.90;;;;;;5025815;28;19909;-71
2023/11/22 11:25:08;;;;;;;;;;;6.20;98.70;;;;;;5012636;28;19909;-71
2023/11/22 11:27:35;;;;;;;;;;;6.10;98.30;;;;;;5018861;28;20004;-72
2023/11/22 11:30:23;;;;;;;;;;;6.10;97.80;;;;;;5024108;28;20564;-71
2023/11/22 11:32:50;;;;;;;;;;;6.20;98.00;;;;;;5024997;28;19913;-72
2023/11/22 11:35:19;;;;;;;;;;;6.20;98.40;;;;;;5029486;28;20173;-71
2023/11/22 11:37:59;;;;;;;;;;;6.20;98.40;;;;;;5027550;28;19915;-71
2023/11/22 11:40:25;;;;;;;;;;;6.30;98.30;;;;;;5020670;28;19924;-72
2023/11/22 11:42:50;;;;;;;;;;;6.30;98.40;;;;;;5025146;28;19916;-72
2023/11/22 11:45:20;;;;;;;;;;;6.10;97.90;;;;;;5023745;28;20399;-71
2023/11/22 11:47:46;;;;;;;;;;;6.30;97.60;;;;;;5024604;28;19937;-71
2023/11/22 11:50:12;;;;;;;;;;;6.30;97.10;;;;;;5031924;28;19917;-71
2023/11/22 11:52:40;;;;;;;;;;;6.20;97.30;;;;;;5025630;28;20322;-71
2023/11/22 11:55:06;;;;;;;;;;;6.20;97.50;;;;;;5022313;28;19962;-71
2023/11/22 11:57:32;;;;;;;;;;;6.20;97.80;;;;;;5025581;28;20011;-71
2023/11/22 11:59:59;;;;;;;;;;;6.20;97.80;;;;;;5022778;28;20306;-71
2023/11/22 12:02:24;;;;;;;;;;;6.30;97.70;;;;;;5022665;28;20390;-71
2023/11/22 12:04:50;;;;;;;;;;;6.20;97.50;;;;;;5022594;28;19913;-71
2023/11/22 12:07:15;;;;;;;;;;;6.30;97.00;;;;;;5032215;28;19916;-71
2023/11/22 12:09:41;;;;;;;;;;;6.30;97.10;;;;;;5022026;28;20071;-71
2023/11/22 12:12:06;;;;;;;;;;;6.30;97.00;;;;;;5024004;28;19908;-71
2023/11/22 12:14:32;;;;;;;;;;;6.30;97.10;;;;;;5024635;28;20292;-71
2023/11/22 12:16:59;;;;;;;;;;;6.30;97.10;;;;;;5023818;28;20341;-71
2023/11/22 12:19:26;;;;;;;;;;;6.20;96.70;;;;;;5027172;28;19917;-72
2023/11/22 12:21:52;;;;;;;;;;;6.20;96.50;;;;;;5023703;28;19920;-71
2023/11/22 12:24:20;;;;;;;;;;;6.10;96.70;;;;;;5029819;28;19939;-71
2023/11/22 12:26:46;;;;;;;;;;;6.20;97.00;;;;;;5019177;28;20374;-72
2023/11/22 12:29:14;;;;;;;;;;;6.10;96.70;;;;;;5023804;28;19924;-72
2023/11/22 12:31:50;;;;;;;;;;;6.00;96.70;;;;;;5024731;28;20010;-71
2023/11/22 12:34:18;;;;;;;;;;;6.20;96.60;;;;;;5021699;28;19933;-72
2023/11/22 12:36:45;;;;;;;;;;;6.20;96.50;;;;;;5025293;28;19952;-71
2023/11/22 12:39:20;;;;;;;;;;;6.30;95.80;;;;;;5026847;28;20295;-72
2023/11/22 12:41:47;;;;;;;;;;;6.20;95.90;;;;;;5023157;28;20008;-72
2023/11/22 12:44:13;;;;;;;;;;;6.10;96.10;;;;;;5031802;28;19917;-71
2023/11/22 12:47:10;;;;;;;;;;;6.10;96.60;;;;;;5028676;28;19920;-71
2023/11/22 12:49:42;;;;;;;;;;;6.30;96.50;;;;;;5007345;23;19928;-72
2023/11/22 12:52:10;;;;;;;;;;;6.30;96.60;;;;;;4986759;28;19965;-71
2023/11/22 12:54:38;;;;;;;;;;;6.40;96.50;;;;;;5002082;28;19956;-72
2023/11/22 12:57:10;;;;;;;;;;;6.30;95.80;;;;;;5001413;28;19917;-72
2023/11/22 12:59:35;;;;;;;;;;;6.40;95.50;;;;;;5005099;28;19913;-72
2023/11/22 13:02:02;;;;;;;;;;;6.30;95.50;;;;;;5000427;28;19924;-72
2023/11/22 13:04:29;;;;;;;;;;;6.20;95.90;;;;;;4996823;28;19916;-71
2023/11/22 13:06:54;;;;;;;;;;;6.10;95.80;;;;;;4999206;28;19913;-71
2023/11/22 13:09:20;;;;;;;;;;;6.10;96.40;;;;;;5004169;28;19913;-71
2023/11/22 13:11:48;;;;;;;;;;;6.10;96.40;;;;;;5007126;28;19910;-71
2023/11/22 13:14:17;;;;;;;;;;;6.10;96.50;;;;;;5000399;28;20354;-72
2023/11/22 13:16:42;;;;;;;;;;;6.10;96.40;;;;;;4996862;28;19917;-72
2023/11/22 13:19:10;;;;;;;;;;;6.00;96.30;;;;;;5004148;28;19917;-71
2023/11/22 13:21:36;;;;;;;;;;;5.90;96.10;;;;;;5000179;28;19920;-72
2023/11/22 13:24:04;;;;;;;;;;;5.90;96.40;;;;;;5006505;28;19921;-72
2023/11/22 13:26:29;;;;;;;;;;;6.00;96.50;;;;;;5005128;28;19971;-72
2023/11/22 13:28:55;;;;;;;;;;;6.00;96.40;;;;;;5006866;28;19913;-72
2023/11/22 13:31:24;;;;;;;;;;;5.90;96.40;;;;;;5005541;28;20000;-71
2023/11/22 13:33:52;;;;;;;;;;;5.90;96.50;;;;;;5003007;28;20533;-71
2023/11/22 13:36:19;;;;;;;;;;;6.00;96.10;;;;;;5000746;28;19995;-71
2023/11/22 13:38:45;;;;;;;;;;;5.90;96.20;;;;;;5005317;28;19910;-71
2023/11/22 13:41:11;;;;;;;;;;;5.90;95.90;;;;;;5004541;28;19913;-71
2023/11/22 13:43:36;;;;;;;;;;;5.80;95.40;;;;;;5006516;28;19948;-72
2023/11/22 13:46:02;;;;;;;;;;;5.70;95.60;;;;;;5005415;28;20407;-71
2023/11/22 13:48:28;;;;;;;;;;;5.80;95.90;;;;;;4998458;28;19932;-71
2023/11/22 13:50:53;;;;;;;;;;;5.70;96.10;;;;;;5000196;28;19913;-71
2023/11/22 13:53:22;;;;;;;;;;;5.70;96.20;;;;;;5005910;28;19924;-72
2023/11/22 13:55:51;;;;;;;;;;;5.70;96.20;;;;;;5003932;28;19909;-71
2023/11/22 13:58:19;;;;;;;;;;;5.90;96.10;;;;;;5006947;28;19913;-71
2023/11/22 14:00:47;;;;;;;;;;;5.80;96.10;;;;;;5002540;28;19921;-71
2023/11/22 14:03:13;;;;;;;;;;;5.80;96.40;;;;;;5000452;28;19928;-71
2023/11/22 14:05:38;;;;;;;;;;;5.80;96.60;;;;;;5005025;28;19917;-71
2023/11/22 14:08:06;;;;;;;;;;;5.90;95.90;;;;;;5007648;28;19952;-71
2023/11/22 14:10:31;;;;;;;;;;;5.90;96.00;;;;;;5006796;28;19996;-71
2023/11/22 14:13:03;;;;;;;;;;;5.90;96.30;;;;;;5010530;28;19996;-71
2023/11/22 14:15:29;;;;;;;;;;;5.90;96.40;;;;;;4992412;28;20028;-72
2023/11/22 14:17:55;;;;;;;;;;;6.00;96.60;;;;;;5009094;28;20447;-72
2023/11/22 14:20:24;;;;;;;;;;;6.00;96.30;;;;;;5007148;28;20505;-71
2023/11/22 14:22:49;;;;;;;;;;;5.70;96.60;;;;;;5002797;28;19923;-72
2023/11/22 14:25:15;;;;;;;;;;;5.90;96.70;;;;;;5006472;28;19909;-72
2023/11/22 14:27:42;;;;;;;;;;;5.60;96.60;;;;;;5008650;28;19909;-73
2023/11/22 14:30:08;;;;;;;;;;;5.60;96.90;;;;;;5007007;28;19920;-71
2023/11/22 14:32:34;;;;;;;;;;;5.70;96.90;;;;;;5009488;28;19953;-71
2023/11/22 14:35:01;;;;;;;;;;;5.80;96.90;;;;;;5004330;28;19972;-76
2023/11/22 14:37:27;;;;;;;;;;;5.90;96.80;;;;;;5005708;28;19910;-72
2023/11/22 14:39:54;;;;;;;;;;;6.00;96.60;;;;;;5004816;28;20275;-71